createdAt,value
2019-03-06T00:02:18.773Z,97621.95
2019-03-06T00:04:48.071Z,97619.72
2019-03-06T00:07:18.380Z,97617.42
2019-03-06T00:09:47.219Z,97621.06
2019-03-06T00:12:16.569Z,97615.48
2019-03-06T00:14:46.964Z,97620.36
2019-03-06T00:17:16.231Z,97615.19
2019-03-06T00:19:46.445Z,97621.09
2019-03-06T00:22:17.134Z,97621.58
2019-03-06T00:24:47.432Z,97621.60
2019-03-06T00:27:16.684Z,97626.02
2019-03-06T00:29:46.983Z,97635.17
2019-03-06T00:32:16.316Z,97627.39
2019-03-06T00:34:45.651Z,97633.71
2019-03-06T00:37:15.951Z,97641.23
2019-03-06T00:39:47.881Z,97636.58
2019-03-06T00:42:18.094Z,97643.05
2019-03-06T00:44:49.676Z,97648.43
2019-03-06T00:47:18.390Z,97645.47
2019-03-06T00:49:49.161Z,97644.83
2019-03-06T00:52:19.434Z,97641.86
2019-03-06T00:54:48.742Z,97635.64
2019-03-06T00:57:19.089Z,97634.27
2019-03-06T00:59:49.576Z,97630.61
2019-03-06T01:02:19.822Z,97633.48
2019-03-06T01:04:50.095Z,97639.19
2019-03-06T01:07:20.373Z,97642.10
2019-03-06T01:09:49.615Z,97635.08
2019-03-06T01:12:19.823Z,97637.81
2019-03-06T01:14:49.218Z,97631.70
2019-03-06T01:17:19.577Z,97631.88
2019-03-06T01:19:54.798Z,97624.17
2019-03-06T01:22:24.177Z,97623.63
2019-03-06T01:24:54.248Z,97621.27
2019-03-06T01:27:23.534Z,97621.17
2019-03-06T01:29:52.896Z,97613.09
2019-03-06T01:32:23.509Z,97614.27
2019-03-06T01:34:59.181Z,97606.70
2019-03-06T01:37:31.024Z,97605.40
2019-03-06T01:40:01.963Z,97603.34
2019-03-06T01:42:32.875Z,97591.87
2019-03-06T01:45:03.283Z,97590.95
2019-03-06T01:47:32.618Z,97585.31
2019-03-06T01:50:01.936Z,97577.86
2019-03-06T01:52:31.209Z,97577.11
2019-03-06T01:55:01.748Z,97579.08
2019-03-06T01:57:32.072Z,97585.41
2019-03-06T02:00:02.287Z,97583.96
2019-03-06T02:02:35.889Z,97593.94
2019-03-06T02:05:07.239Z,97600.45
2019-03-06T02:07:36.811Z,97590.97
2019-03-06T02:10:08.728Z,97588.80
2019-03-06T02:12:39.564Z,97582.11
2019-03-06T02:15:13.175Z,97571.25
2019-03-06T02:17:43.468Z,97577.86
2019-03-06T02:20:17.644Z,97583.55
2019-03-06T02:22:47.357Z,97590.52
2019-03-06T02:25:17.712Z,97594.74
2019-03-06T02:27:48.147Z,97601.70
2019-03-06T02:30:25.423Z,97594.55
2019-03-06T02:32:58.547Z,97598.05
2019-03-06T02:35:27.013Z,97595.32
2019-03-06T02:37:56.520Z,97596.50
2019-03-06T02:40:25.831Z,97603.47
2019-03-06T02:42:55.739Z,97591.11
2019-03-06T02:45:26.069Z,97589.12
2019-03-06T02:47:55.322Z,97592.13
2019-03-06T02:50:24.888Z,97584.86
2019-03-06T02:52:55.445Z,97581.69
2019-03-06T02:55:24.761Z,97577.72
2019-03-06T02:58:13.973Z,97577.17
2019-03-06T03:00:47.439Z,97574.99
2019-03-06T03:03:34.388Z,97581.77
2019-03-06T03:06:06.292Z,97582.95
2019-03-06T03:08:38.759Z,97576.13
2019-03-06T03:11:08.010Z,97566.11
2019-03-06T03:13:38.223Z,97558.87
2019-03-06T03:16:08.496Z,97573.44
2019-03-06T03:18:38.761Z,97576.59
2019-03-06T03:21:09.140Z,97575.44
2019-03-06T03:23:39.741Z,97572.19
2019-03-06T03:26:10.075Z,97572.22
2019-03-06T03:28:39.470Z,97576.93
2019-03-06T03:31:08.907Z,97573.03
2019-03-06T03:33:38.237Z,97557.70
2019-03-06T03:36:07.533Z,97559.62
2019-03-06T03:38:37.834Z,97557.06
2019-03-06T03:41:08.173Z,97557.91
2019-03-06T03:43:38.667Z,97552.39
2019-03-06T03:46:07.947Z,97552.44
2019-03-06T03:48:37.312Z,97552.36
2019-03-06T03:51:06.567Z,97553.26
2019-03-06T03:53:35.883Z,97553.58
2019-03-06T03:56:05.391Z,97556.17
2019-03-06T03:58:36.815Z,97555.17
2019-03-06T04:01:06.126Z,97553.52
2019-03-06T04:03:36.432Z,97561.11
2019-03-06T04:06:05.805Z,97556.08
2019-03-06T04:08:36.275Z,97546.98
2019-03-06T04:11:05.590Z,97545.33
2019-03-06T04:13:34.893Z,97542.80
2019-03-06T04:16:05.256Z,97551.75
2019-03-06T04:18:34.576Z,97547.88
2019-03-06T04:21:05.578Z,97550.88
2019-03-06T04:23:37.232Z,97555.88
2019-03-06T04:26:06.571Z,97561.89
2019-03-06T04:28:36.847Z,97558.80
2019-03-06T04:31:06.169Z,97568.22
2019-03-06T04:33:36.464Z,97562.06
2019-03-06T04:36:06.704Z,97555.46
2019-03-06T04:38:36.974Z,97557.64
2019-03-06T04:41:07.274Z,97551.51
2019-03-06T04:43:36.813Z,97549.09
2019-03-06T04:46:07.052Z,97542.64
2019-03-06T04:48:35.792Z,97541.45
2019-03-06T04:51:06.062Z,97544.44
2019-03-06T04:53:34.834Z,97546.53
2019-03-06T04:56:05.465Z,97550.52
2019-03-06T04:58:35.765Z,97535.75
2019-03-06T05:01:06.112Z,97533.89
2019-03-06T05:03:38.230Z,97521.86
2019-03-06T05:06:08.499Z,97521.58
2019-03-06T05:08:38.840Z,97511.13
2019-03-06T05:11:09.127Z,97511.67
2019-03-06T05:13:39.966Z,97506.78
2019-03-06T05:16:10.262Z,97510.86
2019-03-06T05:18:40.664Z,97509.13
2019-03-06T05:21:11.759Z,97527.58
2019-03-06T05:23:42.035Z,97515.81
2019-03-06T05:26:11.343Z,97520.33
2019-03-06T05:28:40.619Z,97529.90
2019-03-06T05:31:11.687Z,97527.45
2019-03-06T05:33:41.904Z,97528.82
2019-03-06T05:36:22.602Z,97522.11
2019-03-06T05:39:07.473Z,97516.95
2019-03-06T05:41:37.688Z,97520.52
2019-03-06T05:44:07.369Z,97522.97
2019-03-06T05:46:37.588Z,97516.07
2019-03-06T05:49:07.864Z,97519.45
2019-03-06T05:51:37.208Z,97515.20
2019-03-06T05:54:06.505Z,97507.05
2019-03-06T05:56:36.751Z,97504.31
2019-03-06T05:59:06.058Z,97512.14
2019-03-06T06:01:36.432Z,97500.16
2019-03-06T06:04:05.797Z,97505.86
2019-03-06T06:06:36.119Z,97490.75
2019-03-06T06:09:07.178Z,97502.89
2019-03-06T06:11:37.477Z,97507.80
2019-03-06T06:14:06.762Z,97517.31
2019-03-06T06:16:37.141Z,97502.48
2019-03-06T06:19:06.462Z,97509.52
2019-03-06T06:21:47.180Z,97507.63
2019-03-06T06:24:17.395Z,97511.74
2019-03-06T06:26:47.665Z,97516.63
2019-03-06T06:29:17.903Z,97510.86
2019-03-06T06:31:47.228Z,97516.17
2019-03-06T06:34:16.588Z,97516.38
2019-03-06T06:36:46.843Z,97516.59
2019-03-06T06:39:17.662Z,97517.86
2019-03-06T06:41:48.436Z,97523.94
2019-03-06T06:44:17.704Z,97520.33
2019-03-06T06:46:47.985Z,97526.13
2019-03-06T06:49:17.315Z,97512.66
2019-03-06T06:51:56.722Z,97498.45
2019-03-06T06:54:32.976Z,97502.97
2019-03-06T06:57:19.282Z,97497.04
2019-03-06T06:59:55.442Z,97490.86
2019-03-06T07:02:54.101Z,97498.48
2019-03-06T07:05:36.621Z,97474.73
2019-03-06T07:08:23.604Z,97476.47
2019-03-06T07:10:55.642Z,97484.63
2019-03-06T07:13:29.329Z,97482.28
2019-03-06T07:16:10.592Z,97481.34
2019-03-06T07:18:44.879Z,97494.37
2019-03-06T07:21:17.774Z,97491.56
2019-03-06T07:23:49.967Z,97483.92
2019-03-06T07:26:35.725Z,97491.09
2019-03-06T07:29:12.561Z,97498.02
2019-03-06T07:31:46.393Z,97481.64
2019-03-06T07:34:22.883Z,97480.05
2019-03-06T07:36:54.570Z,97484.19
2019-03-06T07:39:25.781Z,97466.80
2019-03-06T07:41:58.217Z,97465.63
2019-03-06T07:44:30.722Z,97466.98
2019-03-06T07:47:11.411Z,97468.91
2019-03-06T07:49:53.782Z,97469.81
2019-03-06T07:52:24.232Z,97469.25
2019-03-06T07:54:56.172Z,97451.05
2019-03-06T07:57:28.274Z,97448.17
2019-03-06T07:59:57.695Z,97437.79
2019-03-06T08:02:38.591Z,97436.34
2019-03-06T08:05:11.562Z,97423.08
2019-03-06T08:07:41.910Z,97422.10
2019-03-06T08:10:18.768Z,97414.29
2019-03-06T08:12:53.781Z,97412.70
2019-03-06T08:15:31.336Z,97416.34
2019-03-06T08:18:03.247Z,97422.77
2019-03-06T08:20:35.120Z,97403.70
2019-03-06T08:23:25.710Z,97410.24
2019-03-06T08:25:55.025Z,97424.59
2019-03-06T08:28:25.776Z,97407.91
2019-03-06T08:31:06.541Z,97423.61
2019-03-06T08:33:35.892Z,97400.86
2019-03-06T08:36:06.187Z,97393.70
2019-03-06T08:38:36.733Z,97403.66
2019-03-06T08:41:06.854Z,97402.95
2019-03-06T08:43:38.505Z,97401.54
2019-03-06T08:46:12.909Z,97395.91
2019-03-06T08:48:43.921Z,97396.97
2019-03-06T08:51:14.801Z,97389.16
2019-03-06T08:53:45.972Z,97388.41
2019-03-06T08:56:22.896Z,97378.84
2019-03-06T08:59:00.522Z,97391.81
2019-03-06T09:01:35.567Z,97397.00
2019-03-06T09:04:08.883Z,97413.94
2019-03-06T09:06:40.172Z,97398.22
2019-03-06T09:09:28.052Z,97401.76
2019-03-06T09:12:16.632Z,97412.61
2019-03-06T09:15:02.180Z,97379.11
2019-03-06T09:17:33.191Z,97374.91
2019-03-06T09:20:06.926Z,97384.66
2019-03-06T09:22:54.922Z,97366.23
2019-03-06T09:25:35.696Z,97358.92
2019-03-06T09:28:18.365Z,97381.11
2019-03-06T09:30:54.866Z,97360.12
2019-03-06T09:33:38.380Z,97367.62
2019-03-06T09:36:15.910Z,97371.09
2019-03-06T09:38:50.831Z,97379.20
2019-03-06T09:41:37.838Z,97356.97
2019-03-06T09:44:21.426Z,97353.14
2019-03-06T09:46:55.181Z,97341.28
2019-03-06T09:49:27.119Z,97358.36
2019-03-06T09:52:02.057Z,97346.77
2019-03-06T09:54:49.325Z,97326.00
2019-03-06T09:57:21.328Z,97341.89
2019-03-06T09:59:59.215Z,97341.70
2019-03-06T10:02:39.773Z,97345.59
2019-03-06T10:05:25.840Z,97342.83
2019-03-06T10:07:57.773Z,97332.03
2019-03-06T10:10:32.824Z,97340.67
2019-03-06T10:13:03.705Z,97339.64
2019-03-06T10:15:44.553Z,97329.91
2019-03-06T10:18:30.770Z,97346.47
2019-03-06T10:21:04.879Z,97326.51
2019-03-06T10:23:35.215Z,97310.01
2019-03-06T10:26:05.590Z,97301.83
2019-03-06T10:28:36.612Z,97318.91
2019-03-06T10:31:07.316Z,97300.66
2019-03-06T10:33:39.483Z,97305.36
2019-03-06T10:36:09.244Z,97294.19
2019-03-06T10:38:40.007Z,97280.59
2019-03-06T10:41:11.241Z,97286.09
2019-03-06T10:43:48.855Z,97289.05
2019-03-06T10:46:12.560Z,97270.45
2019-03-06T10:48:42.824Z,97293.75
2019-03-06T10:51:15.377Z,97259.14
2019-03-06T10:53:45.645Z,97260.00
2019-03-06T10:56:14.417Z,97250.36
2019-03-06T10:58:43.944Z,97255.53
2019-03-06T11:01:14.611Z,97247.20
2019-03-06T11:03:49.302Z,97250.56
2019-03-06T11:06:19.799Z,97259.73
2019-03-06T11:08:50.416Z,97254.50
2019-03-06T11:11:20.040Z,97235.55
2019-03-06T11:13:51.124Z,97227.27
2019-03-06T11:16:20.430Z,97217.66
2019-03-06T11:18:50.958Z,97210.84
2019-03-06T11:21:22.332Z,97203.72
2019-03-06T11:23:54.564Z,97205.03
2019-03-06T11:26:24.883Z,97203.72
2019-03-06T11:28:55.310Z,97205.77
2019-03-06T11:31:25.652Z,97200.95
2019-03-06T11:33:56.492Z,97189.83
2019-03-06T11:36:25.831Z,97195.36
2019-03-06T11:38:56.904Z,97196.82
2019-03-06T11:41:28.016Z,97195.20
2019-03-06T11:43:59.372Z,97177.36
2019-03-06T11:46:29.610Z,97163.76
2019-03-06T11:49:00.688Z,97158.20
2019-03-06T11:51:29.960Z,97159.58
2019-03-06T11:54:00.265Z,97147.71
2019-03-06T11:56:29.851Z,97134.53
2019-03-06T11:59:01.586Z,97132.45
2019-03-06T12:01:34.480Z,97133.84
2019-03-06T12:04:04.759Z,97109.08
2019-03-06T12:06:34.191Z,97106.40
2019-03-06T12:09:03.911Z,97106.28
2019-03-06T12:11:33.330Z,97107.89
2019-03-06T12:14:03.597Z,97094.86
2019-03-06T12:16:41.649Z,97081.11
2019-03-06T12:19:05.683Z,97096.38
2019-03-06T12:21:34.954Z,97078.36
2019-03-06T12:24:06.706Z,97064.00
2019-03-06T12:26:38.450Z,97064.56
2019-03-06T12:29:09.686Z,97059.86
2019-03-06T12:31:40.016Z,97059.13
2019-03-06T12:34:10.389Z,97050.05
2019-03-06T12:36:40.616Z,97037.94
2019-03-06T12:39:11.219Z,97030.65
2019-03-06T12:41:41.453Z,97019.71
2019-03-06T12:44:10.883Z,97026.09
2019-03-06T12:46:41.168Z,97022.24
2019-03-06T12:49:10.449Z,97027.81
2019-03-06T12:51:42.323Z,97029.84
2019-03-06T12:54:13.490Z,97012.78
2019-03-06T12:56:42.765Z,97022.80
2019-03-06T12:59:13.108Z,97007.56
2019-03-06T13:01:42.476Z,97001.28
2019-03-06T13:04:11.906Z,96988.27
2019-03-06T13:06:42.128Z,96998.03
2019-03-06T13:09:18.420Z,96976.55
2019-03-06T13:11:47.760Z,96984.02
2019-03-06T13:14:18.248Z,96978.88
2019-03-06T13:16:47.897Z,96995.00
2019-03-06T13:19:17.289Z,96965.70
2019-03-06T13:21:47.666Z,96982.53
2019-03-06T13:24:18.246Z,96982.11
2019-03-06T13:26:47.675Z,96952.98
2019-03-06T13:29:18.250Z,96957.88
2019-03-06T13:31:48.593Z,96950.57
2019-03-06T13:34:19.034Z,96957.11
2019-03-06T13:36:48.362Z,96932.78
2019-03-06T13:39:20.275Z,96932.92
2019-03-06T13:41:51.699Z,96926.25
2019-03-06T13:44:21.969Z,96921.75
2019-03-06T13:46:53.863Z,96916.72
2019-03-06T13:49:22.366Z,96918.36
2019-03-06T13:51:55.730Z,96897.47
2019-03-06T13:54:25.015Z,96905.30
2019-03-06T13:56:58.416Z,96899.47
2019-03-06T13:59:28.718Z,96900.97
2019-03-06T14:02:02.064Z,96903.98
2019-03-06T14:04:31.343Z,96887.15
2019-03-06T14:07:00.626Z,96862.25
2019-03-06T14:09:30.083Z,96869.53
2019-03-06T14:12:00.397Z,96860.45
2019-03-06T14:14:30.034Z,96847.47
2019-03-06T14:17:01.908Z,96851.00
2019-03-06T14:19:31.275Z,96851.53
2019-03-06T14:22:01.272Z,96858.30
2019-03-06T14:24:34.027Z,96849.06
2019-03-06T14:27:05.422Z,96828.83
2019-03-06T14:29:34.139Z,96821.77
2019-03-06T14:32:04.471Z,96831.02
2019-03-06T14:34:35.342Z,96811.17
2019-03-06T14:37:05.643Z,96811.25
2019-03-06T14:39:35.889Z,96799.78
2019-03-06T14:42:05.749Z,96797.94
2019-03-06T14:44:36.148Z,96819.34
2019-03-06T14:47:06.995Z,96798.72
2019-03-06T14:49:36.507Z,96800.47
2019-03-06T14:52:07.730Z,96805.53
2019-03-06T14:54:38.512Z,96800.50
2019-03-06T14:57:08.946Z,96794.41
2019-03-06T14:59:38.268Z,96784.03
2019-03-06T15:02:07.977Z,96789.07
2019-03-06T15:04:38.194Z,96775.19
2019-03-06T15:07:08.498Z,96790.38
2019-03-06T15:09:37.940Z,96771.92
2019-03-06T15:12:07.348Z,96771.19
2019-03-06T15:14:37.888Z,96764.41
2019-03-06T15:17:09.386Z,96764.89
2019-03-06T15:19:39.303Z,96766.26
2019-03-06T15:22:08.000Z,96745.28
2019-03-06T15:24:41.546Z,96752.22
2019-03-06T15:27:10.351Z,96748.48
2019-03-06T15:29:40.851Z,96748.10
2019-03-06T15:32:11.118Z,96746.55
2019-03-06T15:34:41.966Z,96748.48
2019-03-06T15:37:12.302Z,96746.82
2019-03-06T15:39:45.610Z,96741.45
2019-03-06T15:42:12.135Z,96750.93
2019-03-06T15:44:44.232Z,96745.37
2019-03-06T15:47:14.744Z,96732.88
2019-03-06T15:49:47.210Z,96735.04
2019-03-06T15:52:18.960Z,96736.81
2019-03-06T15:54:48.747Z,96735.75
2019-03-06T15:57:18.065Z,96739.91
2019-03-06T15:59:48.337Z,96738.48
2019-03-06T16:02:18.700Z,96743.19
2019-03-06T16:04:48.154Z,96736.08
2019-03-06T16:07:17.582Z,96733.14
2019-03-06T16:09:47.057Z,96733.81
2019-03-06T16:12:16.872Z,96729.89
2019-03-06T16:14:50.452Z,96726.05
2019-03-06T16:17:21.448Z,96727.77
2019-03-06T16:19:50.815Z,96726.16
2019-03-06T16:22:21.073Z,96715.98
2019-03-06T16:24:50.701Z,96714.61
2019-03-06T16:27:19.981Z,96707.25
2019-03-06T16:29:50.574Z,96696.35
2019-03-06T16:32:20.909Z,96678.30
2019-03-06T16:34:51.789Z,96674.34
2019-03-06T16:37:21.067Z,96675.06
2019-03-06T16:39:53.198Z,96679.98
2019-03-06T16:42:23.438Z,96674.33
2019-03-06T16:44:52.852Z,96673.40
2019-03-06T16:47:24.302Z,96679.05
2019-03-06T16:49:56.430Z,96670.41
2019-03-06T16:52:26.736Z,96671.53
2019-03-06T16:54:59.054Z,96673.88
2019-03-06T16:57:29.262Z,96655.09
2019-03-06T16:59:58.787Z,96651.71
2019-03-06T17:02:29.102Z,96651.00
2019-03-06T17:05:00.335Z,96663.84
2019-03-06T17:07:29.073Z,96664.55
2019-03-06T17:10:02.772Z,96665.78
2019-03-06T17:12:33.213Z,96665.09
2019-03-06T17:15:03.665Z,96659.41
2019-03-06T17:17:32.910Z,96671.72
2019-03-06T17:20:02.334Z,96665.20
2019-03-06T17:22:31.747Z,96658.56
2019-03-06T17:25:03.792Z,96652.81
2019-03-06T17:27:33.122Z,96646.56
2019-03-06T17:30:01.985Z,96649.59
2019-03-06T17:32:32.266Z,96646.78
2019-03-06T17:35:02.574Z,96643.36
2019-03-06T17:37:31.848Z,96651.06
2019-03-06T17:40:01.327Z,96657.96
2019-03-06T17:42:30.135Z,96656.73
2019-03-06T17:44:59.537Z,96655.89
2019-03-06T17:47:29.805Z,96653.22
2019-03-06T17:50:00.126Z,96652.55
2019-03-06T17:52:29.639Z,96654.59
2019-03-06T17:54:59.023Z,96652.06
2019-03-06T17:57:30.874Z,96646.92
2019-03-06T18:00:01.775Z,96645.03
2019-03-06T18:02:32.154Z,96646.03
2019-03-06T18:05:02.479Z,96647.95
2019-03-06T18:07:31.850Z,96648.56
2019-03-06T18:10:01.773Z,96638.14
2019-03-06T18:12:32.149Z,96638.65
2019-03-06T18:15:01.454Z,96638.18
2019-03-06T18:17:30.734Z,96642.80
2019-03-06T18:20:00.022Z,96632.84
2019-03-06T18:22:32.976Z,96640.38
2019-03-06T18:25:03.266Z,96637.25
2019-03-06T18:27:34.678Z,96633.11
2019-03-06T18:30:05.173Z,96634.53
2019-03-06T18:32:33.999Z,96633.30
2019-03-06T18:35:03.735Z,96635.17
2019-03-06T18:37:34.060Z,96639.11
2019-03-06T18:40:03.482Z,96630.03
2019-03-06T18:42:32.850Z,96620.19
2019-03-06T18:45:03.121Z,96616.24
2019-03-06T18:47:34.718Z,96621.76
2019-03-06T18:50:05.167Z,96613.39
2019-03-06T18:52:33.928Z,96609.27
2019-03-06T18:55:06.191Z,96602.27
2019-03-06T18:57:35.438Z,96591.63
2019-03-06T19:00:12.757Z,96584.89
2019-03-06T19:02:42.060Z,96581.84
2019-03-06T19:05:11.750Z,96582.53
2019-03-06T19:07:43.401Z,96580.63
2019-03-06T19:10:15.332Z,96582.96
2019-03-06T19:12:47.164Z,96576.40
2019-03-06T19:15:19.149Z,96568.78
2019-03-06T19:17:49.650Z,96560.56
2019-03-06T19:20:20.457Z,96563.64
2019-03-06T19:22:53.482Z,96563.27
2019-03-06T19:25:23.825Z,96551.59
2019-03-06T19:27:54.159Z,96557.66
2019-03-06T19:30:24.873Z,96555.42
2019-03-06T19:32:56.015Z,96550.80
2019-03-06T19:35:28.112Z,96552.03
2019-03-06T19:37:58.576Z,96552.44
2019-03-06T19:40:29.070Z,96548.60
2019-03-06T19:42:59.344Z,96549.98
2019-03-06T19:45:29.614Z,96552.16
2019-03-06T19:47:59.044Z,96545.42
2019-03-06T19:50:30.366Z,96529.02
2019-03-06T19:52:59.599Z,96516.61
2019-03-06T19:55:29.971Z,96517.13
2019-03-06T19:58:01.548Z,96515.86
2019-03-06T20:00:33.200Z,96507.86
2019-03-06T20:03:02.982Z,96508.87
2019-03-06T20:05:41.077Z,96511.84
2019-03-06T20:08:12.915Z,96498.17
2019-03-06T20:10:43.540Z,96503.88
2019-03-06T20:13:13.491Z,96506.43
2019-03-06T20:15:43.328Z,96511.70
2019-03-06T20:18:12.625Z,96514.45
2019-03-06T20:20:42.827Z,96508.32
2019-03-06T20:23:12.101Z,96503.64
2019-03-06T20:25:44.247Z,96507.97
2019-03-06T20:28:13.510Z,96505.14
2019-03-06T20:30:43.407Z,96496.71
2019-03-06T20:33:15.286Z,96496.53
2019-03-06T20:35:44.665Z,96498.62
2019-03-06T20:38:14.952Z,96496.30
2019-03-06T20:40:44.259Z,96487.86
2019-03-06T20:43:13.596Z,96491.25
2019-03-06T20:45:42.900Z,96467.18
2019-03-06T20:48:14.474Z,96462.48
2019-03-06T20:50:44.871Z,96472.48
2019-03-06T20:53:15.625Z,96467.92
2019-03-06T20:55:46.791Z,96471.87
2019-03-06T20:58:17.045Z,96469.73
2019-03-06T21:00:49.801Z,96477.00
2019-03-06T21:03:20.046Z,96479.42
2019-03-06T21:05:50.828Z,96474.80
2019-03-06T21:08:20.447Z,96467.69
2019-03-06T21:10:49.711Z,96461.75
2019-03-06T21:13:18.440Z,96475.30
2019-03-06T21:15:48.653Z,96472.42
2019-03-06T21:18:18.961Z,96475.17
2019-03-06T21:20:49.257Z,96472.94
2019-03-06T21:23:18.636Z,96470.45
2019-03-06T21:25:49.037Z,96463.08
2019-03-06T21:28:19.308Z,96457.95
2019-03-06T21:30:49.732Z,96455.94
2019-03-06T21:33:21.849Z,96459.84
2019-03-06T21:35:52.876Z,96460.70
2019-03-06T21:38:23.217Z,96462.51
2019-03-06T21:40:53.523Z,96458.83
2019-03-06T21:43:24.267Z,96451.83
2019-03-06T21:45:53.546Z,96457.77
2019-03-06T21:48:26.062Z,96454.31
2019-03-06T21:50:58.339Z,96450.13
2019-03-06T21:53:28.595Z,96454.58
2019-03-06T21:56:01.720Z,96453.78
2019-03-06T21:58:31.920Z,96450.53
2019-03-06T22:01:01.276Z,96447.92
2019-03-06T22:03:31.797Z,96450.16
2019-03-06T22:06:02.890Z,96447.72
2019-03-06T22:08:33.692Z,96440.48
2019-03-06T22:11:05.646Z,96439.11
2019-03-06T22:13:34.918Z,96445.61
2019-03-06T22:16:06.387Z,96444.40
2019-03-06T22:18:36.590Z,96440.34
2019-03-06T22:21:06.953Z,96434.62
2019-03-06T22:23:36.246Z,96432.53
2019-03-06T22:26:06.964Z,96434.55
2019-03-06T22:28:36.208Z,96439.13
2019-03-06T22:31:06.513Z,96433.84
2019-03-06T22:33:38.005Z,96435.21
2019-03-06T22:36:08.241Z,96428.48
2019-03-06T22:38:38.788Z,96429.92
2019-03-06T22:41:08.113Z,96435.85
2019-03-06T22:43:38.768Z,96432.27
2019-03-06T22:46:08.976Z,96431.83
2019-03-06T22:48:41.008Z,96433.64
2019-03-06T22:51:11.238Z,96429.05
2019-03-06T22:53:40.549Z,96426.55
2019-03-06T22:56:10.825Z,96438.73
2019-03-06T22:58:40.973Z,96431.60
2019-03-06T23:01:16.427Z,96436.16
2019-03-06T23:03:46.715Z,96423.63
2019-03-06T23:06:17.047Z,96424.03
2019-03-06T23:08:46.355Z,96410.87
2019-03-06T23:11:16.789Z,96409.91
2019-03-06T23:13:47.023Z,96406.52
2019-03-06T23:16:16.357Z,96408.33
2019-03-06T23:18:45.671Z,96405.74
2019-03-06T23:21:15.945Z,96396.27
2019-03-06T23:23:45.971Z,96389.91
2019-03-06T23:26:16.476Z,96397.47
2019-03-06T23:28:46.732Z,96397.03
2019-03-06T23:31:16.344Z,96399.21
2019-03-06T23:33:46.664Z,96406.28
2019-03-06T23:36:17.173Z,96398.70
2019-03-06T23:38:48.625Z,96405.34
2019-03-06T23:41:17.906Z,96395.15
2019-03-06T23:43:47.917Z,96393.22
2019-03-06T23:46:18.180Z,96388.43
2019-03-06T23:48:48.684Z,96386.72
2019-03-06T23:51:20.556Z,96383.10
2019-03-06T23:53:51.720Z,96392.05
2019-03-06T23:56:22.007Z,96387.59
2019-03-06T23:58:52.327Z,96375.30
